createdAt,value
2022-09-25T00:01:20.534Z,97557.59
2022-09-25T00:03:49.063Z,97550.31
2022-09-25T00:06:20.726Z,97527.19
2022-09-25T00:08:49.123Z,97515.41
2022-09-25T00:11:19.698Z,97508.63
2022-09-25T00:13:49.616Z,97490.41
2022-09-25T00:16:20.327Z,97476.22
2022-09-25T00:19:10.217Z,97474.22
2022-09-25T00:21:39.222Z,97474.03
2022-09-25T00:24:09.693Z,97472.38
2022-09-25T00:26:44.130Z,97457.00
2022-09-25T00:29:17.407Z,97443.81
2022-09-25T00:31:45.528Z,97444.13
2022-09-25T00:34:13.418Z,97402.31
2022-09-25T00:36:41.699Z,97428.44
2022-09-25T00:39:09.650Z,97432.88
2022-09-25T00:41:40.372Z,97421.63
2022-09-25T00:44:41.727Z,97414.38
2022-09-25T00:47:16.839Z,97420.31
2022-09-25T00:49:45.719Z,97433.88
2022-09-25T00:52:14.541Z,97435.69
2022-09-25T00:54:46.840Z,97440.81
2022-09-25T00:57:19.341Z,97455.88
2022-09-25T00:59:53.953Z,97469.91
2022-09-25T01:02:28.397Z,97469.91
2022-09-25T01:04:59.162Z,97469.91
2022-09-25T01:07:27.408Z,97468.25
2022-09-25T01:10:02.920Z,97482.50
2022-09-25T01:12:31.072Z,97479.50
2022-09-25T01:14:59.004Z,97480.50
2022-09-25T01:17:35.004Z,97453.75
2022-09-25T01:20:15.926Z,97471.25
2022-09-25T01:22:58.828Z,97477.22
2022-09-25T01:25:36.887Z,97476.38
2022-09-25T01:28:19.543Z,97476.56
2022-09-25T01:30:54.098Z,97491.94
2022-09-25T01:33:31.901Z,97509.94
2022-09-25T01:36:06.770Z,97548.50
2022-09-25T01:38:39.466Z,97543.38
2022-09-25T01:41:11.900Z,97562.25
2022-09-25T01:43:44.362Z,97548.03
2022-09-25T01:46:18.294Z,97555.28
2022-09-25T01:48:49.904Z,97557.13
2022-09-25T01:51:22.693Z,97549.34
2022-09-25T01:53:55.119Z,97539.09
2022-09-25T01:56:33.378Z,97546.88
2022-09-25T01:59:07.053Z,97534.78
2022-09-25T02:01:41.462Z,97544.56
2022-09-25T02:04:15.309Z,97508.38
2022-09-25T02:06:47.302Z,97521.59
2022-09-25T02:09:19.047Z,97524.53
2022-09-25T02:11:52.438Z,97542.72
2022-09-25T02:14:23.520Z,97545.22
2022-09-25T02:16:59.903Z,97550.50
2022-09-25T02:19:45.848Z,97565.25
2022-09-25T02:22:20.070Z,97558.63
2022-09-25T02:24:58.446Z,97567.22
2022-09-25T02:27:29.778Z,97581.63
2022-09-25T02:29:59.362Z,97587.56
2022-09-25T02:32:32.472Z,97591.06
2022-09-25T02:35:01.196Z,97592.69
2022-09-25T02:37:30.911Z,97593.03
2022-09-25T02:40:02.228Z,97594.69
2022-09-25T02:42:39.797Z,97582.44
2022-09-25T02:45:29.912Z,97573.84
2022-09-25T02:48:08.484Z,97566.25
2022-09-25T02:50:43.368Z,97546.72
2022-09-25T02:53:18.588Z,97544.72
2022-09-25T02:55:52.898Z,97521.25
2022-09-25T02:58:28.503Z,97497.09
2022-09-25T03:00:58.546Z,97484.84
2022-09-25T03:03:29.477Z,97424.34
2022-09-25T03:05:58.690Z,97446.97
2022-09-25T03:08:42.078Z,97428.97
2022-09-25T03:11:12.503Z,97401.16
2022-09-25T03:13:41.835Z,97388.56
2022-09-25T03:16:15.900Z,97361.00
2022-09-25T03:18:46.424Z,97361.13
2022-09-25T03:21:14.530Z,97332.06
2022-09-25T03:23:42.535Z,97309.91
2022-09-25T03:26:10.755Z,97306.63
2022-09-25T03:28:38.790Z,97280.72
2022-09-25T03:31:08.783Z,97298.69
2022-09-25T03:33:38.419Z,97285.78
2022-09-25T03:36:11.931Z,97266.50
2022-09-25T03:38:41.366Z,97246.84
2022-09-25T03:41:12.981Z,97241.22
2022-09-25T03:43:43.708Z,97231.16
2022-09-25T03:46:14.348Z,97206.03
2022-09-25T03:48:43.247Z,97200.25
2022-09-25T03:51:12.797Z,97194.94
2022-09-25T03:53:41.438Z,97165.44
2022-09-25T03:56:13.032Z,97172.84
2022-09-25T03:58:41.532Z,97167.91
2022-09-25T04:01:11.097Z,97159.31
2022-09-25T04:03:40.215Z,97154.38
2022-09-25T04:06:10.080Z,97158.97
2022-09-25T04:08:39.492Z,97166.72
2022-09-25T04:11:07.666Z,97172.84
2022-09-25T04:13:37.497Z,97170.25
2022-09-25T04:16:08.245Z,97180.78
2022-09-25T04:18:36.926Z,97190.72
2022-09-25T04:21:07.911Z,97190.66
2022-09-25T04:23:36.737Z,97199.41
2022-09-25T04:26:06.494Z,97197.53
2022-09-25T04:28:34.646Z,97214.16
2022-09-25T04:31:03.877Z,97204.72
2022-09-25T04:33:49.215Z,97218.63
2022-09-25T04:36:18.961Z,97225.84
2022-09-25T04:38:48.021Z,97208.56
2022-09-25T04:41:31.266Z,97243.56
2022-09-25T04:43:59.551Z,97252.78
2022-09-25T04:46:27.648Z,97239.56
2022-09-25T04:48:55.578Z,97237.78
2022-09-25T04:51:23.954Z,97246.84
2022-09-25T04:53:52.076Z,97233.31
2022-09-25T04:56:21.593Z,97206.59
2022-09-25T04:58:51.073Z,97223.91
2022-09-25T05:01:21.765Z,97234.97
2022-09-25T05:03:53.732Z,97242.72
2022-09-25T05:06:23.040Z,97243.91
2022-09-25T05:08:51.931Z,97240.91
2022-09-25T05:11:21.591Z,97227.38
2022-09-25T05:13:51.456Z,97245.19
2022-09-25T05:16:20.080Z,97253.78
2022-09-25T05:18:48.201Z,97251.19
2022-09-25T05:21:16.059Z,97286.50
2022-09-25T05:23:43.989Z,97322.50
2022-09-25T05:26:12.047Z,97333.72
2022-09-25T05:28:43.259Z,97331.78
2022-09-25T05:31:11.259Z,97363.84
2022-09-25T05:33:39.290Z,97383.50
2022-09-25T05:36:09.129Z,97389.13
2022-09-25T05:38:39.094Z,97392.94
2022-09-25T05:41:08.815Z,97434.22
2022-09-25T05:43:42.852Z,97428.66
2022-09-25T05:46:12.172Z,97477.28
2022-09-25T05:48:40.967Z,97483.41
2022-09-25T05:51:09.470Z,97530.88
2022-09-25T05:53:38.354Z,97540.47
2022-09-25T05:56:06.999Z,97569.88
2022-09-25T05:58:35.930Z,97594.06
2022-09-25T06:01:07.256Z,97614.75
2022-09-25T06:03:37.474Z,97639.56
2022-09-25T06:06:05.753Z,97659.94
2022-09-25T06:08:35.113Z,97699.03
2022-09-25T06:11:03.600Z,97698.53
2022-09-25T06:13:34.869Z,97748.03
2022-09-25T06:16:03.650Z,97777.69
2022-09-25T06:18:33.955Z,97808.19
2022-09-25T06:21:03.720Z,97834.84
2022-09-25T06:23:32.024Z,97820.63
2022-09-25T06:26:03.573Z,97848.44
2022-09-25T06:28:33.459Z,97902.13
2022-09-25T06:31:02.280Z,97911.59
2022-09-25T06:33:30.948Z,97952.88
2022-09-25T06:36:00.826Z,97988.38
2022-09-25T06:38:31.561Z,98012.91
2022-09-25T06:41:00.880Z,98052.41
2022-09-25T06:43:29.422Z,98107.84
2022-09-25T06:46:02.622Z,98158.44
2022-09-25T06:48:31.390Z,98183.19
2022-09-25T06:51:02.006Z,98301.13
2022-09-25T06:53:31.326Z,98390.91
2022-09-25T06:56:00.915Z,98391.38
2022-09-25T06:58:30.634Z,98470.22
2022-09-25T07:00:59.196Z,98547.88
2022-09-25T07:03:44.470Z,98617.63
2022-09-25T07:06:16.227Z,98650.91
2022-09-25T07:08:44.786Z,98690.06
2022-09-25T07:11:15.422Z,98752.31
2022-09-25T07:13:43.950Z,98795.09
2022-09-25T07:16:17.567Z,98838.81
2022-09-25T07:18:46.731Z,98899.81
2022-09-25T07:21:17.780Z,98938.16
2022-09-25T07:23:48.788Z,98980.03
2022-09-25T07:26:22.546Z,99008.84
2022-09-25T07:28:55.996Z,99028.91
2022-09-25T07:31:26.043Z,99045.72
2022-09-25T07:33:54.476Z,99093.31
2022-09-25T07:36:24.683Z,99139.88
2022-09-25T07:38:55.762Z,99163.28
2022-09-25T07:41:27.732Z,99206.66
2022-09-25T07:46:46.125Z,99303.53
2022-09-25T07:49:18.131Z,99344.91
2022-09-25T07:51:47.546Z,99378.66
2022-09-25T07:54:15.559Z,99444.09
2022-09-25T07:56:43.775Z,99493.28
2022-09-25T07:59:14.652Z,99556.06
2022-09-25T08:01:44.957Z,99618.94
2022-09-25T08:04:14.616Z,99679.88
2022-09-25T08:06:42.510Z,99725.06
2022-09-25T08:09:13.164Z,99816.38
2022-09-25T08:11:42.382Z,99953.59
2022-09-25T08:14:10.437Z,100024.06
2022-09-25T08:16:38.444Z,100025.66
2022-09-25T08:19:06.443Z,100136.13
2022-09-25T08:21:36.753Z,100172.59
2022-09-25T08:24:05.714Z,100242.84
2022-09-25T08:26:36.887Z,100433.50
2022-09-25T08:29:09.370Z,100512.63
2022-09-25T08:31:37.477Z,100592.06
2022-09-25T08:34:28.183Z,100603.94
2022-09-25T08:36:53.493Z,100769.94
2022-09-25T08:39:21.433Z,100797.78
2022-09-25T08:41:55.202Z,100888.06
2022-09-25T08:44:29.748Z,100962.72
2022-09-25T08:47:19.839Z,100959.31
2022-09-25T08:50:02.234Z,100945.19
2022-09-25T08:52:31.743Z,100994.22
2022-09-25T08:54:59.885Z,101038.53
2022-09-25T08:57:35.640Z,101016.03
2022-09-25T09:00:09.092Z,101156.53
2022-09-25T09:02:45.428Z,101209.22
2022-09-25T09:05:20.675Z,101086.06
2022-09-25T09:07:55.276Z,101117.19
2022-09-25T09:10:31.533Z,101193.34
2022-09-25T09:13:07.289Z,101282.13
2022-09-25T09:15:41.894Z,101309.34
2022-09-25T09:18:20.114Z,101528.91
2022-09-25T09:20:53.367Z,101728.38
2022-09-25T09:23:23.530Z,101925.13
2022-09-25T09:26:01.409Z,102254.34
2022-09-25T09:29:02.983Z,102609.34
2022-09-25T09:31:41.825Z,102969.00
2022-09-25T09:35:01.057Z,103132.41
2022-09-25T09:37:40.117Z,103375.75
2022-09-25T09:40:26.131Z,103361.75
2022-09-25T09:43:11.081Z,103509.09
2022-09-25T09:45:47.494Z,103555.28
2022-09-25T09:48:21.254Z,103761.81
2022-09-25T09:50:53.245Z,104337.75
2022-09-25T09:53:35.503Z,104422.22
2022-09-25T09:56:09.284Z,104671.84
2022-09-25T09:58:46.046Z,105035.69
2022-09-25T10:01:39.649Z,105353.81
2022-09-25T10:04:10.666Z,105242.44
2022-09-25T10:06:43.464Z,105326.72
2022-09-25T10:09:16.817Z,105445.63
2022-09-25T10:11:53.223Z,105058.25
2022-09-25T10:14:27.026Z,104501.09
2022-09-25T10:16:58.535Z,103856.56
2022-09-25T10:19:32.535Z,103369.56
2022-09-25T10:22:16.443Z,102975.88
2022-09-25T10:24:51.857Z,102808.06
2022-09-25T10:27:29.733Z,102699.03
2022-09-25T10:30:14.465Z,102613.00
2022-09-25T10:32:57.814Z,102521.88
2022-09-25T10:35:30.974Z,102427.84
2022-09-25T10:38:02.003Z,102390.78
2022-09-25T10:40:33.488Z,102294.22
2022-09-25T10:43:17.782Z,102289.22
2022-09-25T10:45:46.224Z,102477.19
2022-09-25T10:48:49.947Z,102541.13
2022-09-25T10:51:20.005Z,102436.03
2022-09-25T10:53:49.459Z,102440.44
2022-09-25T10:56:21.664Z,102519.03
2022-09-25T10:58:58.132Z,102781.97
2022-09-25T11:01:36.423Z,103209.47
2022-09-25T11:04:13.688Z,103562.25
2022-09-25T11:06:46.258Z,103886.03
2022-09-25T11:09:19.755Z,103829.56
2022-09-25T11:11:49.643Z,103660.06
2022-09-25T11:14:25.097Z,103842.56
2022-09-25T11:16:57.818Z,103685.00
2022-09-25T11:19:29.956Z,103702.81
2022-09-25T11:22:08.208Z,103888.19
2022-09-25T11:24:51.391Z,104290.28
2022-09-25T11:27:26.272Z,104462.91
2022-09-25T11:30:04.225Z,104973.41
2022-09-25T11:32:42.734Z,105543.41
2022-09-25T11:35:29.894Z,105597.00
2022-09-25T11:38:06.308Z,105965.06
2022-09-25T11:41:18.048Z,106138.75
2022-09-25T11:44:02.984Z,105774.03
2022-09-25T11:46:40.508Z,105964.78
2022-09-25T11:49:18.381Z,106100.06
2022-09-25T11:52:20.229Z,106044.00
2022-09-25T11:55:16.104Z,106206.19
2022-09-25T11:57:56.515Z,106607.91
2022-09-25T12:00:28.575Z,106600.56
2022-09-25T12:03:27.478Z,106459.47
2022-09-25T12:06:32.420Z,105998.34
2022-09-25T12:09:19.953Z,105161.72
2022-09-25T12:11:57.541Z,104900.47
2022-09-25T12:14:33.640Z,104440.56
2022-09-25T12:17:10.262Z,104276.41
2022-09-25T12:19:46.042Z,103986.34
2022-09-25T12:22:21.576Z,104283.34
2022-09-25T12:25:00.938Z,104162.06
2022-09-25T12:27:42.131Z,104046.25
2022-09-25T12:30:18.584Z,103797.16
2022-09-25T12:33:04.150Z,103828.84
2022-09-25T12:35:41.981Z,103808.09
2022-09-25T12:38:19.994Z,104072.09
2022-09-25T12:40:55.660Z,104277.22
2022-09-25T12:43:45.074Z,104477.38
2022-09-25T12:46:24.105Z,104833.25
2022-09-25T12:48:57.802Z,104717.28
2022-09-25T12:51:34.117Z,104170.56
2022-09-25T12:54:07.590Z,103728.38
2022-09-25T12:56:43.846Z,103905.31
2022-09-25T12:59:16.817Z,103508.13
2022-09-25T13:01:54.073Z,103060.34
2022-09-25T13:04:36.276Z,102693.84
2022-09-25T13:07:11.083Z,102341.53
2022-09-25T13:09:44.901Z,102062.69
2022-09-25T13:12:27.510Z,101830.84
2022-09-25T13:14:59.999Z,101785.25
2022-09-25T13:17:28.520Z,101691.22
2022-09-25T13:20:37.225Z,101607.00
2022-09-25T13:23:10.292Z,101551.81
2022-09-25T13:25:43.185Z,101565.84
2022-09-25T13:28:30.219Z,101519.91
2022-09-25T13:31:08.062Z,101775.47
2022-09-25T13:33:43.484Z,102215.94
2022-09-25T13:36:23.292Z,102387.50
2022-09-25T13:39:11.994Z,102877.78
2022-09-25T13:41:50.542Z,103874.22
2022-09-25T13:44:59.013Z,104160.66
2022-09-25T13:48:04.475Z,105108.50
2022-09-25T13:50:43.592Z,105484.88
2022-09-25T13:53:21.634Z,105576.25
2022-09-25T13:56:24.108Z,106190.84
2022-09-25T13:59:24.963Z,106734.78
2022-09-25T14:01:59.710Z,107443.59
2022-09-25T14:04:33.849Z,107394.53
2022-09-25T14:07:13.023Z,107352.75
2022-09-25T14:09:45.788Z,106801.59
2022-09-25T14:12:24.865Z,105908.44
2022-09-25T14:14:57.788Z,104867.66
2022-09-25T14:17:30.220Z,104520.09
2022-09-25T14:20:02.075Z,104282.09
2022-09-25T14:22:34.952Z,103633.66
2022-09-25T14:25:03.352Z,102925.66
2022-09-25T14:27:31.180Z,102346.53
2022-09-25T14:30:08.612Z,102053.25
2022-09-25T14:32:55.474Z,101835.25
2022-09-25T14:35:36.704Z,101445.13
2022-09-25T14:38:20.327Z,101358.75
2022-09-25T14:41:05.219Z,101516.75
2022-09-25T14:43:52.765Z,102510.28
2022-09-25T14:46:23.163Z,103467.16
2022-09-25T14:48:54.752Z,104408.25
2022-09-25T14:51:27.717Z,105100.00
2022-09-25T14:53:59.612Z,105068.88
2022-09-25T14:56:34.456Z,104414.84
2022-09-25T14:59:10.260Z,103690.53
2022-09-25T15:01:47.133Z,102951.72
2022-09-25T15:04:26.932Z,102470.69
2022-09-25T15:07:16.965Z,102019.31
2022-09-25T15:09:48.479Z,101554.97
2022-09-25T15:12:21.387Z,101318.34
2022-09-25T15:15:03.679Z,101198.84
2022-09-25T15:17:32.331Z,101044.47
2022-09-25T15:20:04.166Z,100871.88
2022-09-25T15:22:38.450Z,100757.00
2022-09-25T15:25:16.018Z,100711.91
2022-09-25T15:27:44.176Z,100531.34
2022-09-25T15:30:17.150Z,100423.47
2022-09-25T15:32:50.652Z,100361.91
2022-09-25T15:35:27.329Z,100293.84
2022-09-25T15:38:09.210Z,100234.31
2022-09-25T15:40:37.746Z,100163.06
2022-09-25T15:43:13.290Z,100107.13
2022-09-25T15:45:45.742Z,100071.91
2022-09-25T15:48:25.055Z,99990.09
2022-09-25T15:50:54.484Z,99943.78
2022-09-25T15:53:28.949Z,99892.06
2022-09-25T15:56:18.822Z,99861.59
2022-09-25T15:58:50.200Z,99753.53
2022-09-25T16:01:44.482Z,99719.75
2022-09-25T16:04:54.828Z,99676.22
2022-09-25T16:07:29.528Z,99619.56
2022-09-25T16:10:00.536Z,99490.59
2022-09-25T16:12:32.026Z,99492.63
2022-09-25T16:15:41.252Z,99414.34
2022-09-25T16:18:26.902Z,99344.03
2022-09-25T16:21:01.672Z,99282.50
2022-09-25T16:23:31.539Z,99275.50
2022-09-25T16:26:02.015Z,99207.66
2022-09-25T16:28:33.017Z,99153.00
2022-09-25T16:31:02.992Z,99063.63
2022-09-25T16:33:33.723Z,99002.03
2022-09-25T16:36:14.492Z,98901.38
2022-09-25T16:39:05.512Z,98778.31
2022-09-25T16:41:37.288Z,98700.16
2022-09-25T16:44:14.547Z,98591.03
2022-09-25T16:46:43.452Z,98494.47
2022-09-25T16:49:12.810Z,98447.84
2022-09-25T16:51:46.134Z,98367.66
2022-09-25T16:54:16.520Z,98348.56
2022-09-25T16:56:48.351Z,98254.66
2022-09-25T16:59:18.597Z,98207.13
2022-09-25T17:01:48.060Z,98161.44
2022-09-25T17:04:18.287Z,98146.28
2022-09-25T17:06:47.476Z,98155.09
2022-09-25T17:09:17.117Z,98106.59
2022-09-25T17:11:54.330Z,98067.06
2022-09-25T17:14:24.339Z,98006.50
2022-09-25T17:16:53.063Z,97972.47
2022-09-25T17:19:22.115Z,97927.84
2022-09-25T17:21:52.165Z,97859.56
2022-09-25T17:24:23.334Z,97851.22
2022-09-25T17:26:52.851Z,97803.44
2022-09-25T17:29:21.486Z,97755.53
2022-09-25T17:31:49.639Z,97715.09
2022-09-25T17:34:18.841Z,97665.56
2022-09-25T17:36:46.661Z,97626.66
2022-09-25T17:39:14.763Z,97578.63
2022-09-25T17:41:43.265Z,97547.03
2022-09-25T17:44:17.220Z,97520.19
2022-09-25T17:46:45.321Z,97490.09
2022-09-25T17:49:13.546Z,97466.09
2022-09-25T17:51:41.973Z,97439.81
2022-09-25T17:54:11.918Z,97401.09
2022-09-25T17:56:40.417Z,97360.75
2022-09-25T17:59:09.128Z,97323.69
2022-09-25T18:01:39.917Z,97283.44
2022-09-25T18:04:20.300Z,97270.53
2022-09-25T18:06:48.638Z,97247.06
2022-09-25T18:09:16.704Z,97234.44
2022-09-25T18:11:45.105Z,97215.44
2022-09-25T18:14:14.041Z,97194.69
2022-09-25T18:16:45.734Z,97184.56
2022-09-25T18:19:36.050Z,97170.94
2022-09-25T18:22:21.924Z,97181.25
2022-09-25T18:24:53.079Z,97138.19
2022-09-25T18:27:21.678Z,97143.44
2022-09-25T18:29:49.571Z,97136.03
2022-09-25T18:32:18.901Z,97145.28
2022-09-25T18:34:46.743Z,97148.38
2022-09-25T18:37:14.962Z,97145.13
2022-09-25T18:39:43.583Z,97139.78
2022-09-25T18:42:11.505Z,97117.19
2022-09-25T18:44:42.695Z,97103.97
2022-09-25T18:47:11.659Z,97050.56
2022-09-25T18:49:41.177Z,97073.25
2022-09-25T18:52:09.107Z,97056.09
2022-09-25T18:54:36.975Z,97049.88
2022-09-25T18:57:05.103Z,97043.22
2022-09-25T18:59:33.055Z,97035.63
2022-09-25T19:02:01.366Z,97039.75
2022-09-25T19:04:29.437Z,97029.38
2022-09-25T19:06:58.815Z,97030.53
2022-09-25T19:09:27.805Z,97000.72
2022-09-25T19:11:56.280Z,97023.28
2022-09-25T19:14:25.007Z,97023.75
2022-09-25T19:16:56.599Z,96999.44
2022-09-25T19:19:24.430Z,96996.34
2022-09-25T19:21:52.285Z,96962.13
2022-09-25T19:24:21.996Z,96964.69
2022-09-25T19:26:50.473Z,96947.53
2022-09-25T19:29:18.354Z,96937.50
2022-09-25T19:31:46.362Z,96920.34
2022-09-25T19:34:14.397Z,96910.28
2022-09-25T19:36:42.408Z,96903.97
2022-09-25T19:39:10.559Z,96890.84
2022-09-25T19:41:41.093Z,96885.47
2022-09-25T19:44:13.210Z,96883.56
2022-09-25T19:46:42.230Z,96859.84
2022-09-25T19:49:10.497Z,96863.50
2022-09-25T19:51:40.405Z,96851.09
2022-09-25T19:54:11.659Z,96830.84
2022-09-25T19:56:46.252Z,96798.28
2022-09-25T19:59:16.111Z,96792.53
2022-09-25T20:01:45.234Z,96757.84
2022-09-25T20:04:18.317Z,96787.78
2022-09-25T20:06:47.543Z,96778.75
2022-09-25T20:09:15.860Z,96770.88
2022-09-25T20:11:50.267Z,96810.38
2022-09-25T20:14:20.529Z,96796.06
2022-09-25T20:16:48.612Z,96766.63
2022-09-25T20:19:19.315Z,96764.28
2022-09-25T20:21:47.540Z,96741.31
2022-09-25T20:24:15.788Z,96750.59
2022-09-25T20:26:44.986Z,96734.66
2022-09-25T20:29:15.151Z,96721.44
2022-09-25T20:31:44.693Z,96707.78
2022-09-25T20:34:14.229Z,96697.72
2022-09-25T20:36:42.257Z,96678.97
2022-09-25T20:39:10.743Z,96704.50
2022-09-25T20:41:39.026Z,96690.78
2022-09-25T20:44:08.887Z,96692.44
2022-09-25T20:46:37.062Z,96675.84
2022-09-25T20:49:05.147Z,96676.03
2022-09-25T20:51:35.300Z,96688.34
2022-09-25T20:54:05.283Z,96675.69
2022-09-25T20:56:34.481Z,96660.19
2022-09-25T20:59:02.964Z,96643.06
2022-09-25T21:01:36.814Z,96654.47
2022-09-25T21:04:08.046Z,96667.94
2022-09-25T21:06:41.890Z,96678.97
2022-09-25T21:09:14.191Z,96647.00
2022-09-25T21:11:43.799Z,96681.97
2022-09-25T21:14:16.541Z,96682.50
2022-09-25T21:16:46.383Z,96695.63
2022-09-25T21:19:16.395Z,96697.91
2022-09-25T21:21:44.657Z,96693.63
2022-09-25T21:24:15.579Z,96656.63
2022-09-25T21:26:43.687Z,96693.63
2022-09-25T21:29:13.451Z,96720.88
2022-09-25T21:31:49.017Z,96711.56
2022-09-25T21:34:19.565Z,96745.59
2022-09-25T21:36:48.131Z,96754.97
2022-09-25T21:39:16.402Z,96781.13
2022-09-25T21:41:44.953Z,96799.09
2022-09-25T21:44:17.985Z,96796.00
2022-09-25T21:46:46.089Z,96795.63
2022-09-25T21:49:20.435Z,96787.41
2022-09-25T21:51:49.554Z,96784.78
2022-09-25T21:54:17.905Z,96782.13
2022-09-25T21:56:45.962Z,96774.38
2022-09-25T21:59:14.357Z,96773.56
2022-09-25T22:01:43.146Z,96809.84
2022-09-25T22:04:14.411Z,96828.91
2022-09-25T22:06:45.676Z,96832.81
2022-09-25T22:09:16.826Z,96888.47
2022-09-25T22:11:47.991Z,96907.44
2022-09-25T22:14:16.845Z,96917.00
2022-09-25T22:16:49.190Z,96935.53
2022-09-25T22:19:22.095Z,96969.59
2022-09-25T22:21:52.728Z,96990.88
2022-09-25T22:24:20.914Z,96980.03
2022-09-25T22:26:51.593Z,97018.25
2022-09-25T22:29:31.678Z,97018.59
2022-09-25T22:31:59.784Z,96996.88
2022-09-25T22:34:29.762Z,97015.78
2022-09-25T22:37:02.063Z,97028.81
2022-09-25T22:39:30.774Z,97025.34
2022-09-25T22:41:59.099Z,97008.28
2022-09-25T22:44:30.191Z,97013.66
2022-09-25T22:47:02.408Z,97001.44
2022-09-25T22:49:32.050Z,96993.22
2022-09-25T22:52:01.632Z,97007.91
2022-09-25T22:54:29.526Z,96984.69
2022-09-25T22:56:57.604Z,97040.06
2022-09-25T22:59:28.377Z,97065.16
2022-09-25T23:01:56.942Z,97076.03
2022-09-25T23:04:29.772Z,97098.69
2022-09-25T23:06:57.992Z,97139.59
2022-09-25T23:09:27.319Z,97209.50
2022-09-25T23:11:56.615Z,97297.91
2022-09-25T23:14:26.998Z,97434.13
2022-09-25T23:16:55.520Z,97495.47
2022-09-25T23:19:24.429Z,97510.56
2022-09-25T23:21:53.646Z,97550.78
2022-09-25T23:24:22.559Z,97572.94
2022-09-25T23:26:52.124Z,97585.03
2022-09-25T23:29:21.832Z,97601.59
2022-09-25T23:31:50.522Z,97613.03
2022-09-25T23:34:19.940Z,97608.44
2022-09-25T23:36:48.049Z,97650.59
2022-09-25T23:39:18.098Z,97672.97
2022-09-25T23:41:46.473Z,97685.25
2022-09-25T23:44:16.181Z,97700.81
2022-09-25T23:46:45.022Z,97716.88
2022-09-25T23:49:13.113Z,97753.66
2022-09-25T23:51:43.173Z,97772.91
2022-09-25T23:54:12.188Z,97794.44
2022-09-25T23:56:41.232Z,97807.72
2022-09-25T23:59:12.299Z,97817.81
